Time;durP1;ratioP1;P1;durP2;ratioP2;P2;SDS_P1;SDS_P2;PMS_P1;PMS_P2;Temp;Humidity;BMP_temperature;BMP_pressure;BME280_temperature;BME280_humidity;BME280_pressure;Samples;Min_cycle;Max_cycle;Signal;HPM_P1;HPM_P2
2024/03/12 00:00:37;;;;;;;147.15;44.45;;;8.20;99.90;;;;;;5089785;28;20432;-75
2024/03/12 00:03:07;;;;;;;154.50;45.50;;;8.20;99.90;;;;;;5089499;28;20051;-74
2024/03/12 00:05:33;;;;;;;140.23;42.88;;;8.30;99.90;;;;;;5071730;28;20043;-75
2024/03/12 00:08:01;;;;;;;123.05;43.92;;;8.30;99.90;;;;;;5089717;28;20036;-75
2024/03/12 00:10:27;;;;;;;148.57;49.03;;;8.30;99.90;;;;;;5090359;28;20048;-75
2024/03/12 00:12:53;;;;;;;167.70;43.78;;;8.30;99.90;;;;;;5089369;28;20034;-75
2024/03/12 00:15:24;;;;;;;180.07;48.88;;;8.30;99.90;;;;;;5090132;28;20024;-75
2024/03/12 00:17:51;;;;;;;134.18;47.30;;;8.30;99.90;;;;;;5070807;28;20284;-75
2024/03/12 00:20:18;;;;;;;271.58;53.22;;;8.30;99.90;;;;;;5089890;28;20480;-75
2024/03/12 00:22:49;;;;;;;149.60;46.40;;;8.30;99.90;;;;;;5070596;28;20050;-75
2024/03/12 00:25:21;;;;;;;178.27;45.63;;;8.30;99.90;;;;;;5070912;28;20192;-75
2024/03/12 00:27:47;;;;;;;244.88;52.63;;;8.30;99.90;;;;;;5089188;28;20062;-75
2024/03/12 00:30:14;;;;;;;165.15;47.33;;;8.40;99.90;;;;;;5089893;28;20450;-74
2024/03/12 00:32:43;;;;;;;149.30;44.63;;;8.40;99.90;;;;;;5070828;28;20048;-75
2024/03/12 00:35:12;;;;;;;196.95;47.83;;;8.40;99.90;;;;;;5064099;28;20042;-75
2024/03/12 00:38:20;;;;;;;136.52;46.72;;;8.40;99.90;;;;;;5070906;28;20035;-75
2024/03/12 00:40:33;;;;;;;175.93;44.95;;;8.40;99.90;;;;;;5070390;28;20040;-72
2024/03/12 00:43:02;;;;;;;167.75;45.28;;;8.40;99.90;;;;;;5084089;28;20123;-75
2024/03/12 00:45:36;;;;;;;172.15;48.60;;;8.40;99.90;;;;;;5091419;28;20075;-74
2024/03/12 00:48:12;;;;;;;168.50;46.45;;;8.40;99.90;;;;;;5076092;28;20043;-74
2024/03/12 00:50:38;;;;;;;167.23;47.25;;;8.40;99.90;;;;;;5095188;28;20047;-74
2024/03/12 00:53:04;;;;;;;193.60;46.55;;;8.40;99.90;;;;;;5089600;28;20008;-75
2024/03/12 00:55:30;;;;;;;209.38;48.53;;;8.40;99.90;;;;;;5089621;28;20024;-75
2024/03/12 00:57:57;;;;;;;197.40;47.15;;;8.40;99.90;;;;;;5089104;28;20048;-75
2024/03/12 01:00:28;;;;;;;192.57;45.00;;;8.40;99.90;;;;;;5089027;28;20020;-75
2024/03/12 01:02:58;;;;;;;170.45;44.15;;;8.30;99.90;;;;;;5088625;28;20028;-75
2024/03/12 01:05:26;;;;;;;174.27;48.13;;;8.40;99.90;;;;;;5088182;28;20024;-75
2024/03/12 01:08:00;;;;;;;183.50;47.22;;;8.30;99.90;;;;;;5088558;28;20107;-73
2024/03/12 01:10:30;;;;;;;184.13;48.83;;;8.30;99.90;;;;;;5089173;28;20024;-74
2024/03/12 01:12:58;;;;;;;213.13;48.30;;;8.30;99.90;;;;;;5087848;28;20024;-75
2024/03/12 01:15:24;;;;;;;162.70;44.08;;;8.20;99.90;;;;;;5070276;28;20278;-75
2024/03/12 01:17:51;;;;;;;141.82;45.17;;;8.30;99.90;;;;;;5087906;28;20024;-75
2024/03/12 01:20:20;;;;;;;198.75;49.88;;;8.30;99.90;;;;;;5088710;28;20028;-75
2024/03/12 01:22:53;;;;;;;130.00;47.22;;;8.30;99.90;;;;;;5087734;28;20020;-75
2024/03/12 01:25:23;;;;;;;203.10;48.47;;;8.30;99.90;;;;;;5088520;28;20031;-75
2024/03/12 01:27:49;;;;;;;165.05;46.30;;;8.30;99.90;;;;;;5087411;28;20020;-75
2024/03/12 01:30:16;;;;;;;125.68;45.40;;;8.30;99.90;;;;;;5070398;28;20024;-75
2024/03/12 01:32:45;;;;;;;149.25;46.42;;;8.30;99.90;;;;;;5087622;28;20020;-75
2024/03/12 01:35:14;;;;;;;192.55;48.33;;;8.30;99.90;;;;;;5088270;28;20205;-75
2024/03/12 01:37:41;;;;;;;143.23;43.03;;;8.30;99.90;;;;;;5087643;28;20057;-75
2024/03/12 01:40:25;;;;;;;151.98;46.08;;;8.30;99.90;;;;;;5064672;28;20031;-74
2024/03/12 01:42:53;;;;;;;152.75;46.67;;;8.30;99.90;;;;;;5081139;28;20028;-75
2024/03/12 01:45:22;;;;;;;133.18;42.50;;;8.30;99.90;;;;;;5069645;28;20028;-75
2024/03/12 01:47:49;;;;;;;133.27;40.92;;;8.30;99.90;;;;;;5087076;28;20024;-74
2024/03/12 01:50:17;;;;;;;186.93;46.92;;;8.30;99.90;;;;;;5069184;28;20047;-74
2024/03/12 01:52:43;;;;;;;184.05;49.00;;;8.30;99.90;;;;;;5087467;28;20050;-74
2024/03/12 01:55:11;;;;;;;152.18;43.95;;;8.30;99.90;;;;;;5087495;28;20569;-73
2024/03/12 01:57:42;;;;;;;162.15;43.53;;;8.20;99.90;;;;;;5087057;28;20024;-74
2024/03/12 02:00:17;;;;;;;160.43;46.65;;;8.20;99.90;;;;;;5087803;28;20408;-74
2024/03/12 02:02:44;;;;;;;159.90;45.85;;;8.20;99.90;;;;;;5068662;28;20051;-75
2024/03/12 02:05:11;;;;;;;148.93;44.72;;;8.10;99.90;;;;;;5087437;28;20027;-74
2024/03/12 02:07:45;;;;;;;197.82;50.17;;;8.20;99.90;;;;;;5086422;28;20527;-75
2024/03/12 02:10:13;;;;;;;145.05;46.15;;;8.20;99.90;;;;;;5069367;28;20110;-75
2024/03/12 02:12:39;;;;;;;165.07;45.33;;;8.20;99.90;;;;;;5087219;28;20445;-75
2024/03/12 02:15:05;;;;;;;168.50;48.50;;;8.20;99.90;;;;;;5088480;28;20035;-74
2024/03/12 02:17:31;;;;;;;162.30;44.30;;;8.20;99.90;;;;;;5069380;28;20023;-74
2024/03/12 02:19:57;;;;;;;134.95;43.55;;;8.20;99.90;;;;;;5088389;28;20031;-74
2024/03/12 02:22:23;;;;;;;145.93;45.78;;;8.20;99.90;;;;;;5087826;28;20032;-74
2024/03/12 02:24:50;;;;;;;143.00;43.45;;;8.20;99.90;;;;;;5088352;28;20024;-75
2024/03/12 02:27:17;;;;;;;159.18;45.08;;;8.20;99.90;;;;;;5088082;28;20032;-74
2024/03/12 02:29:47;;;;;;;143.57;44.97;;;8.20;99.90;;;;;;5087563;28;20742;-74
2024/03/12 02:32:13;;;;;;;135.03;43.30;;;8.20;99.90;;;;;;5087454;28;20024;-75
2024/03/12 02:34:39;;;;;;;122.95;41.05;;;8.20;99.90;;;;;;5069089;28;20180;-75
2024/03/12 02:37:05;;;;;;;132.68;41.80;;;8.20;99.90;;;;;;5069186;28;20031;-74
2024/03/12 02:39:31;;;;;;;117.28;39.88;;;8.20;99.90;;;;;;5087706;28;20485;-74
2024/03/12 02:42:00;;;;;;;151.48;42.38;;;8.20;99.90;;;;;;5068250;28;20023;-75
2024/03/12 02:44:26;;;;;;;109.78;41.22;;;8.20;99.90;;;;;;5087026;28;20026;-75
2024/03/12 02:46:54;;;;;;;104.82;39.97;;;8.20;99.90;;;;;;5067977;28;20488;-74
2024/03/12 02:49:22;;;;;;;104.50;41.15;;;8.20;99.90;;;;;;5068631;28;20493;-74
2024/03/12 02:51:48;;;;;;;108.10;39.03;;;8.20;99.90;;;;;;5086286;28;20581;-74
2024/03/12 02:54:15;;;;;;;135.95;41.35;;;8.20;99.90;;;;;;5087247;28;20062;-74
2024/03/12 02:56:42;;;;;;;128.35;41.85;;;8.20;99.90;;;;;;5087442;28;20652;-74
2024/03/12 02:59:11;;;;;;;206.90;55.13;;;8.20;99.90;;;;;;5087331;28;20024;-74
2024/03/12 03:01:38;;;;;;;155.00;45.13;;;8.20;99.90;;;;;;5068737;28;20031;-74
2024/03/12 03:04:04;;;;;;;153.13;46.53;;;8.30;99.90;;;;;;5087681;28;20032;-75
2024/03/12 03:06:29;;;;;;;111.82;38.88;;;8.30;99.90;;;;;;5087901;28;20027;-74
2024/03/12 03:08:55;;;;;;;125.43;41.70;;;8.30;99.90;;;;;;5086061;28;20050;-74
2024/03/12 03:11:21;;;;;;;130.70;42.40;;;8.30;99.90;;;;;;5086555;28;20481;-74
2024/03/12 03:13:46;;;;;;;131.27;41.35;;;8.30;99.90;;;;;;5085400;28;20056;-75
2024/03/12 03:16:12;;;;;;;129.23;42.88;;;8.30;99.90;;;;;;5086479;28;20114;-75
2024/03/12 03:18:38;;;;;;;119.05;43.55;;;8.30;99.90;;;;;;5085437;28;20408;-75
2024/03/12 03:21:04;;;;;;;102.47;40.88;;;8.30;99.90;;;;;;5085939;28;20043;-75
2024/03/12 03:23:30;;;;;;;138.68;40.03;;;8.30;99.90;;;;;;5085711;28;20020;-74
2024/03/12 03:25:55;;;;;;;126.63;40.15;;;8.30;99.90;;;;;;5086069;28;20439;-74
2024/03/12 03:28:21;;;;;;;106.65;39.55;;;8.30;99.90;;;;;;5088622;28;20407;-74
2024/03/12 03:30:49;;;;;;;131.05;37.92;;;8.30;99.90;;;;;;5090455;28;20537;-75
2024/03/12 03:33:16;;;;;;;108.80;38.22;;;8.20;99.90;;;;;;5090147;28;20419;-74
2024/03/12 03:35:41;;;;;;;91.30;35.72;;;8.30;99.90;;;;;;5071732;28;20400;-74
2024/03/12 03:38:08;;;;;;;97.05;35.45;;;8.30;99.90;;;;;;5089613;28;20027;-75
2024/03/12 03:40:34;;;;;;;92.30;33.08;;;8.30;99.90;;;;;;5090255;28;20195;-74
2024/03/12 03:43:00;;;;;;;93.70;35.00;;;8.30;99.90;;;;;;5089059;28;20033;-74
2024/03/12 03:45:25;;;;;;;94.53;34.15;;;8.30;99.90;;;;;;5071969;28;20119;-75
2024/03/12 03:47:51;;;;;;;95.30;34.45;;;8.30;99.90;;;;;;5089254;28;20481;-75
2024/03/12 03:50:17;;;;;;;74.38;31.77;;;8.30;99.90;;;;;;5089774;28;20059;-75
2024/03/12 03:52:43;;;;;;;106.47;32.22;;;8.30;99.90;;;;;;5086465;28;20020;-75
2024/03/12 03:55:10;;;;;;;104.32;33.13;;;8.30;99.90;;;;;;5090236;28;20036;-75
2024/03/12 03:57:36;;;;;;;78.10;30.55;;;8.30;99.90;;;;;;5089672;28;20131;-74
2024/03/12 04:00:12;;;;;;;121.10;34.08;;;8.30;99.90;;;;;;5089821;28;20039;-74
2024/03/12 04:02:38;;;;;;;78.70;30.75;;;8.30;99.90;;;;;;5089746;28;20016;-74
2024/03/12 04:05:05;;;;;;;96.95;33.13;;;8.30;99.90;;;;;;5089589;28;20031;-74
2024/03/12 04:07:30;;;;;;;78.07;29.67;;;8.30;99.90;;;;;;5089188;28;20534;-74
2024/03/12 04:09:56;;;;;;;96.32;32.33;;;8.30;99.90;;;;;;5089711;28;20024;-74
2024/03/12 04:12:22;;;;;;;67.43;29.42;;;8.30;99.90;;;;;;5089100;28;20152;-74
2024/03/12 04:14:48;;;;;;;84.10;29.98;;;8.30;99.90;;;;;;5089157;28;20482;-75
2024/03/12 04:17:13;;;;;;;68.85;27.52;;;8.30;99.90;;;;;;5088740;28;20031;-75
2024/03/12 04:19:40;;;;;;;79.07;28.42;;;8.30;99.90;;;;;;5070819;28;20016;-74
2024/03/12 04:22:06;;;;;;;88.00;30.27;;;8.30;99.90;;;;;;5089229;28;20519;-75
2024/03/12 04:24:31;;;;;;;63.90;26.23;;;8.30;99.90;;;;;;5071034;28;20060;-75
2024/03/12 04:26:57;;;;;;;72.47;26.83;;;8.30;99.90;;;;;;5088609;28;20020;-74
2024/03/12 04:29:22;;;;;;;63.95;25.70;;;8.20;99.90;;;;;;5088875;28;20397;-75
2024/03/12 04:31:48;;;;;;;69.40;27.67;;;8.30;99.90;;;;;;5088820;28;20016;-74
2024/03/12 04:34:14;;;;;;;60.40;26.23;;;8.20;99.90;;;;;;5084064;28;20029;-74
2024/03/12 04:36:40;;;;;;;63.30;26.58;;;8.20;99.90;;;;;;5088051;28;20016;-74
2024/03/12 04:42:04;;;;;;;66.70;27.23;;;8.20;99.90;;;;;;5065988;28;20032;-74
2024/03/12 04:44:31;;;;;;;63.42;24.83;;;8.20;99.90;;;;;;5088902;28;20024;-74
2024/03/12 04:46:57;;;;;;;46.80;21.83;;;8.20;99.90;;;;;;5088446;28;20016;-74
2024/03/12 04:49:22;;;;;;;59.33;24.38;;;8.20;99.90;;;;;;5088533;28;20380;-74
2024/03/12 04:51:50;;;;;;;61.80;23.17;;;8.20;99.90;;;;;;5088837;28;20298;-74
2024/03/12 04:54:18;;;;;;;55.65;23.77;;;8.20;99.90;;;;;;5088690;28;20103;-74
2024/03/12 04:56:48;;;;;;;67.45;25.30;;;8.20;99.90;;;;;;5088447;28;20509;-74
2024/03/12 04:59:16;;;;;;;58.65;25.08;;;8.20;99.90;;;;;;5069853;28;20504;-74
2024/03/12 05:01:47;;;;;;;56.53;22.60;;;8.20;99.90;;;;;;5088867;28;20024;-74
2024/03/12 05:04:13;;;;;;;60.92;25.10;;;8.20;99.90;;;;;;5088341;28;20028;-74
2024/03/12 05:06:41;;;;;;;61.95;25.42;;;8.10;99.90;;;;;;5088546;28;20023;-75
2024/03/12 05:09:08;;;;;;;61.13;25.52;;;8.10;99.90;;;;;;5088046;28;20145;-73
2024/03/12 05:11:37;;;;;;;58.45;23.77;;;8.10;99.90;;;;;;5070687;28;20028;-74
2024/03/12 05:14:03;;;;;;;62.17;24.27;;;8.10;99.90;;;;;;5070280;28;20573;-75
2024/03/12 05:16:31;;;;;;;48.90;21.52;;;8.10;99.90;;;;;;5088989;28;20020;-74
2024/03/12 05:18:57;;;;;;;54.50;23.92;;;8.10;99.90;;;;;;5091848;28;20599;-75
2024/03/12 05:21:23;;;;;;;50.78;22.05;;;8.10;99.90;;;;;;5092320;28;20079;-72
2024/03/12 05:23:49;;;;;;;43.88;19.30;;;8.10;99.90;;;;;;5088944;28;20024;-74
2024/03/12 05:26:17;;;;;;;54.83;22.77;;;8.10;99.90;;;;;;5088729;28;20085;-73
2024/03/12 05:28:43;;;;;;;44.05;20.50;;;8.10;99.90;;;;;;5089923;28;20107;-73
2024/03/12 05:31:20;;;;;;;43.50;19.33;;;8.10;99.90;;;;;;5091632;28;20048;-74
2024/03/12 05:33:48;;;;;;;50.03;21.40;;;8.10;99.90;;;;;;5091599;28;20020;-69
2024/03/12 05:36:14;;;;;;;55.40;21.63;;;8.00;99.90;;;;;;5078935;28;20128;-72
2024/03/12 05:38:55;;;;;;;55.60;20.23;;;8.00;99.90;;;;;;5092336;28;20370;-74
2024/03/12 05:41:29;;;;;;;51.20;21.65;;;8.00;99.90;;;;;;5069955;28;20016;-73
2024/03/12 05:49:23;;;;;;;70.32;25.17;;;8.10;99.90;;;;;;5074481;28;20539;-75
2024/03/12 05:51:50;;;;;;;76.88;26.45;;;8.00;99.90;;;;;;5087667;28;20024;-75
2024/03/12 05:54:16;;;;;;;78.63;27.77;;;8.00;99.90;;;;;;5087517;28;20024;-75
2024/03/12 05:56:42;;;;;;;79.25;28.83;;;8.00;99.90;;;;;;5087670;28;20016;-75
2024/03/12 05:59:08;;;;;;;79.32;27.40;;;8.00;99.90;;;;;;5087452;28;20094;-75
2024/03/12 06:01:34;;;;;;;73.20;25.50;;;8.00;99.90;;;;;;5088325;28;20028;-75
2024/03/12 06:03:59;;;;;;;76.25;25.70;;;8.00;99.90;;;;;;5065652;28;20547;-74
2024/03/12 06:06:25;;;;;;;87.07;26.80;;;8.00;99.90;;;;;;5088844;28;20028;-74
2024/03/12 06:08:50;;;;;;;75.40;25.23;;;8.00;99.90;;;;;;5087281;28;20063;-75
2024/03/12 06:11:16;;;;;;;75.43;26.83;;;7.90;99.90;;;;;;5068140;28;20073;-75
2024/03/12 06:13:43;;;;;;;83.78;27.35;;;8.00;99.90;;;;;;5087277;28;20023;-75
2024/03/12 06:16:09;;;;;;;80.88;25.60;;;8.00;99.90;;;;;;5069707;28;20026;-75
2024/03/12 06:18:35;;;;;;;81.22;26.60;;;8.00;99.90;;;;;;5087232;28;20577;-74
2024/03/12 06:21:01;;;;;;;97.53;29.05;;;8.00;99.90;;;;;;5069437;28;20042;-75
2024/03/12 06:23:26;;;;;;;87.55;27.00;;;7.90;99.90;;;;;;5087350;28;20032;-75
2024/03/12 06:25:52;;;;;;;79.45;27.85;;;8.00;99.90;;;;;;5072961;28;20036;-75
2024/03/12 06:28:21;;;;;;;83.03;25.83;;;8.00;99.90;;;;;;5081930;28;20060;-75
2024/03/12 06:30:48;;;;;;;89.15;26.63;;;8.00;99.90;;;;;;5061357;28;20111;-75
2024/03/12 06:33:17;;;;;;;89.00;28.85;;;8.00;99.90;;;;;;5086276;28;20032;-75
2024/03/12 06:35:47;;;;;;;79.05;28.95;;;8.00;99.90;;;;;;5086696;28;20026;-74
2024/03/12 06:38:13;;;;;;;75.35;25.35;;;8.00;99.90;;;;;;5068162;28;20020;-75
2024/03/12 06:40:39;;;;;;;77.43;28.40;;;8.00;99.90;;;;;;5083964;28;20024;-75
2024/03/12 06:43:05;;;;;;;86.88;26.48;;;8.00;99.90;;;;;;5086096;28;20400;-75
2024/03/12 06:45:31;;;;;;;85.43;27.90;;;8.00;99.90;;;;;;5082958;28;20052;-75
2024/03/12 06:47:57;;;;;;;87.65;27.05;;;8.00;99.90;;;;;;5080007;28;20488;-74
2024/03/12 06:50:26;;;;;;;77.45;25.35;;;7.90;99.90;;;;;;5078916;28;20174;-75
2024/03/12 06:52:53;;;;;;;74.47;25.27;;;7.90;99.90;;;;;;5060573;28;20020;-75
2024/03/12 06:55:23;;;;;;;85.00;26.48;;;7.90;99.90;;;;;;5072966;28;20469;-74
2024/03/12 06:57:55;;;;;;;67.05;23.73;;;7.90;99.90;;;;;;5075823;28;20120;-74
2024/03/12 07:00:31;;;;;;;68.88;23.40;;;7.90;99.90;;;;;;5072882;28;20024;-75
2024/03/12 07:03:02;;;;;;;59.60;22.38;;;7.90;99.90;;;;;;5051230;28;20891;-74
2024/03/12 07:05:29;;;;;;;;;;;7.90;99.90;;;;;;5071522;28;20029;-74
2024/03/12 07:07:56;;;;;;;63.28;23.88;;;7.90;99.90;;;;;;5054171;28;19919;-75
2024/03/12 07:10:25;;;;;;;64.35;22.35;;;7.90;99.90;;;;;;5068798;28;20025;-74
2024/03/12 07:12:50;;;;;;;65.28;22.25;;;7.90;99.90;;;;;;5066610;28;20046;-74
2024/03/12 07:15:18;;;;;;;59.58;22.48;;;7.90;99.90;;;;;;5085374;28;20073;-74
2024/03/12 07:17:44;;;;;;;66.57;23.23;;;8.00;99.90;;;;;;5080052;28;20028;-75
2024/03/12 07:20:15;;;;;;;69.95;24.10;;;8.00;99.90;;;;;;5076084;28;20042;-75
2024/03/12 07:22:42;;;;;;;76.15;24.73;;;8.00;99.90;;;;;;5068684;28;20101;-74
2024/03/12 07:25:10;;;;;;;59.30;21.45;;;8.00;99.90;;;;;;5066273;28;20024;-75
2024/03/12 07:27:36;;;;;;;64.32;22.40;;;8.00;99.90;;;;;;5071792;28;20035;-75
2024/03/12 07:30:03;;;;;;;53.13;20.90;;;8.00;99.90;;;;;;5074571;28;20158;-74
2024/03/12 07:32:30;;;;;;;53.90;21.77;;;8.00;99.90;;;;;;5070182;28;20498;-74
2024/03/12 07:34:56;;;;;;;49.58;20.73;;;8.00;99.90;;;;;;5072541;28;20031;-74
2024/03/12 07:37:21;;;;;;;52.58;23.17;;;8.00;99.90;;;;;;5067943;28;20025;-75
2024/03/12 07:39:47;;;;;;;63.90;22.25;;;8.00;99.90;;;;;;5066824;28;20017;-74
2024/03/12 07:42:18;;;;;;;58.20;21.02;;;8.00;99.90;;;;;;5074313;28;20062;-75
2024/03/12 07:44:47;;;;;;;60.70;22.33;;;8.00;99.90;;;;;;5063014;28;20420;-74
2024/03/12 07:47:14;;;;;;;62.15;21.45;;;8.00;99.90;;;;;;5072300;28;20508;-74
2024/03/12 07:49:41;;;;;;;61.70;22.25;;;8.00;99.90;;;;;;5085917;28;20071;-74
2024/03/12 07:52:09;;;;;;;63.25;22.35;;;8.10;99.90;;;;;;5086486;28;20801;-75
2024/03/12 07:54:35;;;;;;;61.42;22.60;;;8.10;99.90;;;;;;5085583;28;20039;-75
2024/03/12 07:57:01;;;;;;;57.60;20.73;;;8.10;99.90;;;;;;5064342;28;20012;-74
2024/03/12 07:59:30;;;;;;;65.25;22.05;;;8.00;99.90;;;;;;5078960;28;20169;-74
2024/03/12 08:01:58;;;;;;;56.42;23.00;;;8.00;99.90;;;;;;5073185;28;20020;-75
2024/03/12 08:04:27;;;;;;;54.75;23.08;;;8.00;99.90;;;;;;5069763;28;20040;-75
2024/03/12 08:06:53;;;;;;;60.22;21.63;;;8.00;99.90;;;;;;5085593;28;20051;-75
2024/03/12 08:09:19;;;;;;;66.90;23.90;;;8.10;99.90;;;;;;5085005;28;20344;-75
2024/03/12 08:11:47;;;;;;;58.45;22.95;;;8.10;99.90;;;;;;5074582;28;20120;-75
2024/03/12 08:14:13;;;;;;;57.42;23.08;;;8.10;99.90;;;;;;5077550;28;20021;-74
2024/03/12 08:16:40;;;;;;;71.10;24.42;;;8.10;99.90;;;;;;5089735;28;20017;-75
2024/03/12 08:19:05;;;;;;;58.22;21.48;;;8.10;99.90;;;;;;5088735;28;20366;-75
2024/03/12 08:21:32;;;;;;;53.00;22.20;;;8.10;99.90;;;;;;5089619;28;20045;-76
2024/03/12 08:24:01;;;;;;;60.40;22.65;;;8.10;99.90;;;;;;5078675;28;20504;-75
2024/03/12 08:26:27;;;;;;;65.75;22.52;;;8.10;99.90;;;;;;5065747;28;20024;-76
2024/03/12 08:28:56;;;;;;;59.90;22.52;;;8.10;99.90;;;;;;5072887;28;20027;-75
2024/03/12 08:31:23;;;;;;;50.13;20.10;;;8.10;99.90;;;;;;5075445;28;20012;-75
2024/03/12 08:33:49;;;;;;;66.35;22.25;;;8.10;99.90;;;;;;5082093;28;20017;-75
2024/03/12 08:36:15;;;;;;;66.18;22.25;;;8.10;99.90;;;;;;5074173;28;20027;-74
2024/03/12 08:38:40;;;;;;;60.10;21.67;;;8.20;99.90;;;;;;5075491;28;20028;-75
2024/03/12 08:41:09;;;;;;;62.35;23.20;;;8.20;99.90;;;;;;5085491;28;20039;-75
2024/03/12 08:43:36;;;;;;;49.78;21.92;;;8.20;99.90;;;;;;5081090;28;20041;-75
2024/03/12 08:46:03;;;;;;;51.45;21.58;;;8.20;99.90;;;;;;5059668;28;20024;-75
2024/03/12 08:48:29;;;;;;;48.80;20.77;;;8.20;99.90;;;;;;5079659;28;20107;-75
2024/03/12 08:50:56;;;;;;;59.10;22.45;;;8.20;99.90;;;;;;5085496;28;20146;-75
2024/03/12 08:53:21;;;;;;;56.20;23.10;;;8.20;99.90;;;;;;5062531;28;20055;-76
2024/03/12 08:55:47;;;;;;;58.38;22.33;;;8.20;99.90;;;;;;5084622;28;20077;-75
2024/03/12 08:58:13;;;;;;;61.72;22.88;;;8.20;99.90;;;;;;5080089;28;20039;-75
2024/03/12 09:00:41;;;;;;;48.83;21.80;;;8.20;99.90;;;;;;5078075;28;20477;-75
2024/03/12 09:03:07;;;;;;;48.40;21.33;;;8.20;99.90;;;;;;5080148;28;20031;-76
2024/03/12 09:05:34;;;;;;;48.90;21.42;;;8.20;99.90;;;;;;5081673;28;20080;-75
2024/03/12 09:08:03;;;;;;;52.97;21.33;;;8.20;99.90;;;;;;5060431;28;20038;-75
2024/03/12 09:10:30;;;;;;;40.50;18.83;;;8.20;99.90;;;;;;5072840;28;20020;-76
2024/03/12 09:12:56;;;;;;;44.72;20.10;;;8.20;99.90;;;;;;5060148;28;20031;-77
2024/03/12 09:15:22;;;;;;;47.78;20.90;;;8.20;99.90;;;;;;5051442;28;20024;-76
2024/03/12 09:17:48;;;;;;;42.40;17.05;;;8.20;99.90;;;;;;5068661;28;20482;-75
2024/03/12 09:20:14;;;;;;;42.60;18.92;;;8.20;99.90;;;;;;5077230;28;20043;-75
2024/03/12 09:22:44;;;;;;;36.42;16.50;;;8.20;99.90;;;;;;5085355;28;20032;-76
2024/03/12 09:25:10;;;;;;;38.55;18.00;;;8.20;99.90;;;;;;5076549;28;20484;-75
2024/03/12 09:27:37;;;;;;;34.83;16.55;;;8.20;99.90;;;;;;5079176;28;20552;-75
2024/03/12 09:30:05;;;;;;;33.38;15.93;;;8.20;99.90;;;;;;5074336;28;20489;-75
2024/03/12 09:32:30;;;;;;;43.17;17.35;;;8.10;99.90;;;;;;5065341;28;20016;-75
2024/03/12 09:34:56;;;;;;;39.53;18.15;;;8.10;99.90;;;;;;5085330;28;20042;-75
2024/03/12 09:37:22;;;;;;;35.17;16.80;;;8.10;99.90;;;;;;5075364;28;20154;-75
2024/03/12 09:39:52;;;;;;;39.58;16.95;;;8.10;99.90;;;;;;5074085;28;20118;-77
2024/03/12 09:42:20;;;;;;;41.80;17.70;;;8.20;99.90;;;;;;5073891;28;20482;-76
2024/03/12 09:44:46;;;;;;;31.73;16.30;;;8.20;99.90;;;;;;5067704;28;20025;-76
2024/03/12 09:47:12;;;;;;;35.28;16.60;;;8.20;99.90;;;;;;5071267;28;20035;-75
2024/03/12 09:49:40;;;;;;;36.85;16.67;;;8.20;99.90;;;;;;5083336;28;20532;-75
2024/03/12 09:52:06;;;;;;;37.03;16.48;;;8.20;99.90;;;;;;5064986;28;20482;-76
2024/03/12 09:54:35;;;;;;;42.63;17.73;;;8.30;99.90;;;;;;5068048;28;20389;-75
2024/03/12 09:57:07;;;;;;;32.58;16.38;;;8.30;99.90;;;;;;5076198;28;20013;-75
2024/03/12 09:59:33;;;;;;;30.88;16.20;;;8.30;99.90;;;;;;5069092;28;20089;-75
2024/03/12 10:02:01;;;;;;;38.25;17.90;;;8.30;99.90;;;;;;5085184;28;20028;-76
2024/03/12 10:04:28;;;;;;;35.28;15.68;;;8.30;99.90;;;;;;5073390;28;20389;-76
2024/03/12 10:06:58;;;;;;;39.88;18.52;;;8.30;99.90;;;;;;5087446;28;20043;-76
2024/03/12 10:09:27;;;;;;;36.90;17.27;;;8.30;99.90;;;;;;5072040;28;20028;-77
2024/03/12 10:11:54;;;;;;;41.60;19.30;;;8.30;99.90;;;;;;5080549;28;20072;-75
2024/03/12 10:14:22;;;;;;;41.97;18.40;;;8.30;99.90;;;;;;5061353;28;20107;-76
2024/03/12 10:16:49;;;;;;;41.58;20.58;;;8.30;99.90;;;;;;5081321;28;20023;-76
2024/03/12 10:19:15;;;;;;;37.75;18.52;;;8.40;99.90;;;;;;5074280;28;20055;-76
2024/03/12 10:21:41;;;;;;;38.78;18.67;;;8.40;99.90;;;;;;5079524;28;20486;-75
2024/03/12 10:24:21;;;;;;;41.63;20.85;;;8.40;99.90;;;;;;5072035;28;20166;-75
2024/03/12 10:26:50;;;;;;;38.60;18.80;;;8.40;99.90;;;;;;5066312;28;20512;-76
2024/03/12 10:29:18;;;;;;;34.38;18.05;;;8.50;99.90;;;;;;5065597;28;20032;-77
2024/03/12 10:31:47;;;;;;;35.70;18.67;;;8.50;99.90;;;;;;5071859;28;20083;-76
2024/03/12 10:34:19;;;;;;;40.70;21.00;;;8.60;99.90;;;;;;5078356;28;20587;-76
2024/03/12 10:36:46;;;;;;;33.03;17.83;;;8.60;99.90;;;;;;5081607;28;20020;-76
2024/03/12 10:39:23;;;;;;;36.60;19.25;;;8.60;99.90;;;;;;5066490;28;20033;-75
2024/03/12 10:42:01;;;;;;;40.53;20.83;;;8.60;99.90;;;;;;5072569;28;20035;-75
2024/03/12 10:44:27;;;;;;;38.20;19.40;;;8.60;99.90;;;;;;5084088;28;20057;-76
2024/03/12 10:46:53;;;;;;;38.13;20.15;;;8.60;99.90;;;;;;5079704;28;20031;-76
2024/03/12 10:49:22;;;;;;;39.72;20.58;;;8.60;99.90;;;;;;5059388;28;20027;-76
2024/03/12 10:51:48;;;;;;;38.22;19.92;;;8.60;99.90;;;;;;5060518;28;20397;-76
2024/03/12 10:54:16;;;;;;;38.55;19.73;;;8.60;99.90;;;;;;5080288;28;20024;-74
2024/03/12 10:56:45;;;;;;;36.38;20.67;;;8.70;99.90;;;;;;5075967;28;20052;-76
2024/03/12 10:59:12;;;;;;;36.00;20.42;;;8.70;99.90;;;;;;5072756;28;20405;-76
2024/03/12 11:01:41;;;;;;;39.13;19.27;;;8.70;99.90;;;;;;5070866;28;20488;-76
2024/03/12 11:04:11;;;;;;;37.17;20.60;;;8.70;99.90;;;;;;5072025;28;20515;-76
2024/03/12 11:06:37;;;;;;;37.47;18.27;;;8.70;99.90;;;;;;5068914;28;20048;-76
2024/03/12 11:09:08;;;;;;;37.90;19.55;;;8.80;99.90;;;;;;5068809;28;20033;-75
2024/03/12 11:11:34;;;;;;;33.65;19.17;;;8.80;99.90;;;;;;5074619;28;20024;-76
2024/03/12 11:14:07;;;;;;;36.70;19.83;;;8.80;99.90;;;;;;5082088;28;20020;-76
2024/03/12 11:16:34;;;;;;;34.58;19.88;;;8.90;99.90;;;;;;5083297;28;20016;-76
2024/03/12 11:19:22;;;;;;;37.35;20.70;;;8.90;99.90;;;;;;5058315;28;20036;-76
2024/03/12 11:21:49;;;;;;;34.30;20.58;;;8.90;99.90;;;;;;5077030;28;20032;-76
2024/03/12 11:24:29;;;;;;;35.42;20.25;;;8.90;99.90;;;;;;5076059;28;20032;-77
2024/03/12 11:27:00;;;;;;;37.20;21.10;;;8.90;99.90;;;;;;5076637;28;20039;-76
2024/03/12 11:30:18;;;;;;;34.38;19.08;;;9.00;99.90;;;;;;5082001;28;20042;-76
2024/03/12 11:32:50;;;;;;;33.53;19.70;;;9.00;99.90;;;;;;5078111;28;20025;-77
2024/03/12 11:35:22;;;;;;;35.33;19.30;;;9.00;99.90;;;;;;5051273;28;20021;-77
2024/03/12 11:38:00;;;;;;;39.10;19.60;;;9.00;99.90;;;;;;5051123;28;20405;-75
2024/03/12 11:40:28;;;;;;;35.30;19.38;;;9.10;99.90;;;;;;5078534;28;20024;-75
2024/03/12 11:42:58;;;;;;;33.53;19.02;;;9.10;99.90;;;;;;5078747;28;20036;-77
2024/03/12 11:45:47;;;;;;;32.90;18.77;;;9.10;99.90;;;;;;5082401;28;20035;-75
2024/03/12 11:48:19;;;;;;;38.47;20.17;;;9.10;99.90;;;;;;5064744;28;20032;-75
2024/03/12 11:50:52;;;;;;;32.33;20.52;;;9.10;99.90;;;;;;5077917;28;20083;-75
2024/03/12 11:53:28;;;;;;;30.77;18.45;;;9.00;99.90;;;;;;5070473;28;20030;-76
2024/03/12 11:56:18;;;;;;;33.13;18.58;;;9.00;99.90;;;;;;5067175;28;20080;-76
2024/03/12 11:58:55;;;;;;;32.47;18.30;;;9.10;99.90;;;;;;5072112;28;20039;-76
2024/03/12 12:01:28;;;;;;;37.42;20.73;;;9.10;99.90;;;;;;5067084;28;20032;-76
2024/03/12 12:03:59;;;;;;;35.75;19.35;;;9.10;99.90;;;;;;5080508;28;20110;-77
2024/03/12 12:06:25;;;;;;;33.25;18.40;;;9.10;99.90;;;;;;5081859;28;20032;-76
2024/03/12 12:08:51;;;;;;;33.88;19.80;;;9.20;99.90;;;;;;5079175;28;20051;-76
2024/03/12 12:11:17;;;;;;;36.40;20.73;;;9.30;99.90;;;;;;5085752;28;20647;-77
2024/03/12 12:13:46;;;;;;;34.63;20.40;;;9.40;99.90;;;;;;5073917;28;20031;-77
2024/03/12 12:16:15;;;;;;;35.05;20.00;;;9.60;99.90;;;;;;5067407;28;20081;-77
2024/03/12 12:18:42;;;;;;;32.53;19.98;;;9.70;99.90;;;;;;5084625;28;20081;-77
2024/03/12 12:21:18;;;;;;;35.03;19.65;;;9.70;99.90;;;;;;5081831;28;20028;-77
2024/03/12 12:23:47;;;;;;;32.40;19.73;;;9.80;99.90;;;;;;5090425;28;20461;-78
2024/03/12 12:26:20;;;;;;;29.50;18.00;;;9.80;99.90;;;;;;5081595;28;20054;-76
2024/03/12 12:28:48;;;;;;;33.13;18.52;;;9.70;99.90;;;;;;5077979;28;20550;-77
2024/03/12 12:31:19;;;;;;;31.40;18.20;;;9.80;99.90;;;;;;5055419;28;20450;-77
2024/03/12 12:33:51;;;;;;;29.40;18.15;;;9.70;99.90;;;;;;5067531;28;20448;-77
2024/03/12 12:36:22;;;;;;;33.50;19.00;;;9.70;99.90;;;;;;5089515;28;20097;-78
2024/03/12 12:38:50;;;;;;;29.27;18.48;;;9.80;99.90;;;;;;5069903;28;20035;-78
2024/03/12 12:41:21;;;;;;;33.70;20.45;;;9.80;99.90;;;;;;5089130;28;20650;-78
2024/03/12 12:43:47;;;;;;;34.22;21.08;;;9.80;99.90;;;;;;5086735;28;20104;-77
2024/03/12 12:46:25;;;;;;;29.08;17.75;;;9.80;99.90;;;;;;5087611;28;20027;-77